Time;durP1;ratioP1;P1;durP2;ratioP2;P2;SDS_P1;SDS_P2;PMS_P1;PMS_P2;Temp;Humidity;BMP_temperature;BMP_pressure;BME280_temperature;BME280_humidity;BME280_pressure;Samples;Min_cycle;Max_cycle;Signal;HPM_P1;HPM_P2
2021/05/26 00:01:25;;;;;;;8.00;4.03;;;15.90;54.70;;;;;;5093127;28;20020;-75
2021/05/26 00:03:52;;;;;;;7.72;4.10;;;15.90;54.90;;;;;;5094892;28;20020;-75
2021/05/26 00:06:18;;;;;;;12.50;4.25;;;15.90;55.10;;;;;;5094951;28;20025;-76
2021/05/26 00:08:44;;;;;;;7.95;4.68;;;15.90;55.30;;;;;;5094628;28;20063;-76
2021/05/26 00:11:17;;;;;;;10.68;4.50;;;15.80;55.30;;;;;;5094624;28;20103;-77
2021/05/26 00:13:44;;;;;;;9.18;4.95;;;15.80;55.50;;;;;;5094775;28;20482;-76
2021/05/26 00:16:11;;;;;;;11.52;4.63;;;15.80;55.60;;;;;;5094686;28;20141;-78
2021/05/26 00:18:37;;;;;;;8.77;4.78;;;15.80;55.50;;;;;;5094438;28;20068;-76
2021/05/26 00:21:05;;;;;;;8.13;5.15;;;15.70;55.80;;;;;;5094656;28;20427;-77
2021/05/26 00:23:31;;;;;;;7.53;5.05;;;15.70;56.10;;;;;;5094189;28;20412;-77
2021/05/26 00:25:56;;;;;;;9.02;5.40;;;15.70;56.10;;;;;;5094792;28;20024;-77
2021/05/26 00:28:22;;;;;;;7.93;4.80;;;15.70;56.20;;;;;;5094172;28;20043;-77
2021/05/26 00:30:50;;;;;;;14.48;5.38;;;15.70;56.30;;;;;;5094433;28;20036;-76
2021/05/26 00:33:20;;;;;;;12.43;5.22;;;15.70;55.80;;;;;;5094442;28;20016;-77
2021/05/26 00:35:46;;;;;;;13.23;5.70;;;15.70;55.80;;;;;;5080322;28;20035;-77
2021/05/26 00:38:13;;;;;;;13.43;5.15;;;15.70;56.00;;;;;;5094366;28;20069;-79
2021/05/26 00:40:40;;;;;;;12.38;6.13;;;15.60;56.30;;;;;;5094543;28;20012;-78
2021/05/26 00:43:06;;;;;;;11.77;6.23;;;15.60;55.70;;;;;;5093157;28;20024;-77
2021/05/26 00:45:32;;;;;;;9.65;5.72;;;15.70;55.30;;;;;;5094202;28;20094;-77
2021/05/26 00:47:59;;;;;;;14.90;5.22;;;15.80;55.40;;;;;;5094321;28;20020;-77
2021/05/26 00:50:28;;;;;;;17.97;5.83;;;15.70;55.50;;;;;;5094133;28;20167;-79
2021/05/26 00:52:57;;;;;;;12.18;5.22;;;15.80;55.70;;;;;;5094171;28;20024;-78
2021/05/26 00:55:23;;;;;;;13.80;4.78;;;15.70;56.10;;;;;;5094059;28;20031;-78
2021/05/26 00:57:50;;;;;;;13.07;5.82;;;15.70;56.20;;;;;;5094038;28;20024;-78
2021/05/26 01:00:20;;;;;;;9.73;6.10;;;15.60;56.60;;;;;;5094113;28;20020;-77
2021/05/26 01:02:49;;;;;;;16.40;6.05;;;15.60;56.30;;;;;;5092706;28;20115;-76
2021/05/26 01:05:15;;;;;;;12.65;6.15;;;15.60;57.10;;;;;;5094112;28;20066;-77
2021/05/26 01:07:42;;;;;;;14.00;5.65;;;15.60;57.70;;;;;;5093489;28;20066;-78
2021/05/26 01:10:10;;;;;;;12.75;5.97;;;15.60;57.20;;;;;;5092693;28;20065;-77
2021/05/26 01:12:36;;;;;;;11.48;5.88;;;15.50;57.20;;;;;;5092178;28;20366;-77
2021/05/26 01:15:04;;;;;;;14.23;7.03;;;15.50;57.20;;;;;;5093621;28;20032;-77
2021/05/26 01:17:30;;;;;;;10.15;6.25;;;15.50;57.60;;;;;;5093191;28;20016;-77
2021/05/26 01:19:56;;;;;;;10.20;5.88;;;15.40;57.80;;;;;;5093373;28;20491;-78
2021/05/26 01:22:25;;;;;;;13.35;6.28;;;15.40;57.60;;;;;;5093777;28;20020;-79
2021/05/26 01:24:51;;;;;;;13.27;6.18;;;15.40;58.10;;;;;;5093558;28;20016;-79
2021/05/26 01:27:16;;;;;;;9.20;5.57;;;15.40;58.20;;;;;;5093651;28;20027;-77
2021/05/26 01:29:42;;;;;;;19.08;6.70;;;15.50;58.40;;;;;;5093051;28;20051;-78
2021/05/26 01:32:08;;;;;;;11.88;5.32;;;15.50;58.20;;;;;;5093430;28;20020;-78
2021/05/26 01:34:34;;;;;;;16.98;6.50;;;15.60;58.30;;;;;;5092639;28;20077;-78
2021/05/26 01:37:00;;;;;;;11.70;6.00;;;15.70;58.30;;;;;;5093276;28;20023;-79
2021/05/26 01:39:26;;;;;;;14.27;6.55;;;15.70;58.00;;;;;;5093739;28;20397;-77
2021/05/26 01:41:52;;;;;;;10.13;5.72;;;15.80;57.90;;;;;;5091824;28;20055;-78
2021/05/26 01:44:18;;;;;;;12.32;6.10;;;15.80;57.40;;;;;;5093279;28;20020;-77
2021/05/26 01:46:43;;;;;;;12.68;5.70;;;15.70;57.40;;;;;;5093131;28;20462;-78
2021/05/26 01:49:10;;;;;;;17.02;5.85;;;15.70;57.60;;;;;;5093075;28;20098;-79
2021/05/26 01:51:36;;;;;;;11.38;6.40;;;15.70;58.60;;;;;;5093075;28;20088;-77
2021/05/26 01:54:03;;;;;;;15.73;7.13;;;15.70;58.50;;;;;;5093018;28;20079;-78
2021/05/26 01:56:31;;;;;;;12.73;6.85;;;15.70;58.10;;;;;;5093044;28;20043;-79
2021/05/26 01:58:57;;;;;;;22.65;6.85;;;15.70;58.00;;;;;;5092898;28;20381;-77
2021/05/26 02:01:24;;;;;;;16.42;7.07;;;15.70;58.00;;;;;;5093553;28;20020;-78
2021/05/26 02:03:51;;;;;;;16.45;7.38;;;15.70;58.00;;;;;;5098839;28;20028;-75
2021/05/26 02:06:19;;;;;;;19.20;7.67;;;15.70;58.70;;;;;;5110614;28;20031;-78
2021/05/26 02:08:45;;;;;;;;;;;15.80;58.80;;;;;;5093678;28;20079;-77
2021/05/26 02:14:04;;;;;;;16.10;7.35;;;15.90;58.30;;;;;;5093015;28;20053;-77
2021/05/26 02:16:30;;;;;;;17.35;8.35;;;16.00;58.10;;;;;;5092628;28;20098;-78
2021/05/26 02:18:56;;;;;;;17.58;8.23;;;16.10;57.70;;;;;;5092656;28;20120;-77
2021/05/26 02:21:22;;;;;;;17.40;7.75;;;16.10;57.40;;;;;;5091450;28;20032;-79
2021/05/26 02:23:48;;;;;;;11.68;7.97;;;16.20;57.70;;;;;;5092670;28;20043;-78
2021/05/26 02:26:14;;;;;;;18.77;8.32;;;16.20;57.40;;;;;;5092723;28;20477;-78
2021/05/26 02:28:41;;;;;;;17.38;9.43;;;16.30;56.50;;;;;;5092370;28;20048;-77
2021/05/26 02:31:07;;;;;;;24.88;10.57;;;16.40;56.30;;;;;;5091405;28;20020;-77
2021/05/26 02:33:34;;;;;;;15.30;9.83;;;16.50;55.50;;;;;;5092489;28;20020;-78
2021/05/26 02:36:00;;;;;;;14.83;9.17;;;16.50;55.70;;;;;;5093787;28;20165;-78
2021/05/26 02:38:26;;;;;;;15.95;9.60;;;16.60;55.90;;;;;;5091403;28;20023;-78
2021/05/26 02:40:52;;;;;;;18.23;10.20;;;16.70;55.50;;;;;;5092466;28;20381;-78
2021/05/26 02:43:18;;;;;;;19.48;11.25;;;16.80;55.30;;;;;;5092008;28;20081;-77
2021/05/26 02:45:43;;;;;;;17.92;10.57;;;16.80;55.60;;;;;;5094873;28;20024;-78
2021/05/26 02:48:09;;;;;;;18.20;9.88;;;16.90;54.90;;;;;;5096600;28;20033;-78
2021/05/26 02:50:36;;;;;;;16.50;9.45;;;17.00;54.60;;;;;;5094854;28;20024;-78
2021/05/26 02:53:02;;;;;;;13.52;10.30;;;17.20;54.20;;;;;;5096470;28;20032;-77
2021/05/26 02:55:28;;;;;;;16.83;9.32;;;17.30;53.60;;;;;;5096240;28;20023;-79
2021/05/26 02:57:54;;;;;;;19.85;10.63;;;17.40;53.60;;;;;;5096230;28;20028;-79
2021/05/26 03:00:22;;;;;;;18.67;11.10;;;17.50;53.30;;;;;;5096168;28;20036;-79
2021/05/26 03:02:48;;;;;;;25.73;10.25;;;17.70;53.30;;;;;;5094729;28;20043;-77
2021/05/26 03:05:16;;;;;;;19.73;10.48;;;17.70;53.30;;;;;;5096246;28;20489;-79
2021/05/26 03:07:42;;;;;;;27.52;11.40;;;17.80;53.20;;;;;;5095748;28;20016;-78
2021/05/26 03:10:10;;;;;;;21.60;11.02;;;17.90;53.20;;;;;;5096093;28;20481;-78
2021/05/26 03:12:37;;;;;;;25.25;10.60;;;17.90;52.50;;;;;;5095857;28;20393;-80
2021/05/26 03:15:06;;;;;;;21.98;10.30;;;17.90;52.40;;;;;;5096095;28;20020;-78
2021/05/26 03:17:32;;;;;;;22.70;12.57;;;17.90;52.30;;;;;;5096383;28;20027;-78
2021/05/26 03:19:58;;;;;;;20.75;10.60;;;17.90;52.70;;;;;;5096583;28;20020;-76
2021/05/26 03:22:25;;;;;;;25.38;10.88;;;18.00;52.30;;;;;;5096788;28;20392;-77
2021/05/26 03:24:51;;;;;;;21.67;11.07;;;18.10;52.60;;;;;;5094560;28;20027;-77
2021/05/26 03:27:17;;;;;;;15.60;10.05;;;18.30;52.50;;;;;;5096011;28;20469;-76
2021/05/26 03:29:43;;;;;;;16.63;10.88;;;18.50;52.00;;;;;;5095447;28;20097;-78
2021/05/26 03:32:09;;;;;;;18.00;10.07;;;18.70;51.00;;;;;;5095801;28;20028;-79
2021/05/26 03:34:35;;;;;;;19.45;10.77;;;18.90;51.20;;;;;;5095900;28;20554;-78
2021/05/26 03:37:01;;;;;;;21.67;10.73;;;19.10;50.20;;;;;;5095447;28;20069;-78
2021/05/26 03:39:27;;;;;;;21.40;10.80;;;19.20;49.90;;;;;;5096113;28;20024;-77
2021/05/26 03:41:53;;;;;;;15.13;10.05;;;19.20;50.10;;;;;;5095955;28;20027;-79
2021/05/26 03:44:19;;;;;;;17.80;10.20;;;19.20;49.80;;;;;;5095640;28;20393;-78
2021/05/26 03:46:44;;;;;;;20.27;10.25;;;19.30;49.80;;;;;;5095495;28;20028;-78
2021/05/26 03:49:10;;;;;;;23.23;11.63;;;19.20;49.70;;;;;;5095342;28;20085;-79
2021/05/26 03:51:36;;;;;;;19.80;10.95;;;19.20;49.50;;;;;;5095555;28;20415;-79
2021/05/26 03:54:03;;;;;;;17.33;10.02;;;19.20;50.30;;;;;;5095473;28;20024;-78
2021/05/26 03:56:30;;;;;;;19.45;10.35;;;19.10;50.70;;;;;;5094367;28;20046;-80
2021/05/26 03:58:58;;;;;;;21.35;10.38;;;19.10;50.50;;;;;;5095505;28;20099;-79
2021/05/26 04:01:24;;;;;;;21.30;11.95;;;18.90;50.60;;;;;;5095711;28;20028;-77
2021/05/26 04:03:52;;;;;;;22.38;12.25;;;18.70;51.10;;;;;;5095127;28;20016;-78
2021/05/26 04:06:18;;;;;;;24.27;11.25;;;18.60;50.70;;;;;;5095490;28;20020;-79
2021/05/26 04:08:44;;;;;;;23.75;11.55;;;18.50;51.40;;;;;;5095170;28;20087;-80
2021/05/26 04:11:10;;;;;;;30.83;12.32;;;18.60;51.50;;;;;;5093617;28;20047;-79
2021/05/26 04:13:36;;;;;;;29.45;13.80;;;18.70;51.10;;;;;;5095559;28;20028;-78
2021/05/26 04:16:02;;;;;;;21.90;11.82;;;18.80;51.00;;;;;;5101896;28;20017;-78
2021/05/26 04:18:27;;;;;;;30.83;13.82;;;18.90;50.90;;;;;;5113084;28;20075;-79
2021/05/26 04:20:53;;;;;;;22.23;12.20;;;19.00;50.90;;;;;;5095819;28;20048;-79
2021/05/26 04:23:19;;;;;;;25.88;13.13;;;19.10;50.30;;;;;;5095341;28;20043;-79
2021/05/26 04:25:49;;;;;;;23.48;12.43;;;19.00;50.10;;;;;;5094871;28;20051;-80
2021/05/26 04:28:19;;;;;;;26.58;12.90;;;19.00;51.10;;;;;;5094875;28;20048;-78
2021/05/26 04:30:46;;;;;;;15.75;12.32;;;19.20;50.70;;;;;;5094660;28;20477;-79
2021/05/26 04:33:12;;;;;;;25.27;13.13;;;19.30;50.30;;;;;;5092413;28;20075;-79
2021/05/26 04:35:38;;;;;;;23.33;13.05;;;19.30;50.00;;;;;;5094717;28;20047;-78
2021/05/26 04:38:03;;;;;;;22.27;12.55;;;19.50;49.90;;;;;;5094219;28;20107;-78
2021/05/26 04:40:30;;;;;;;24.92;12.18;;;19.60;49.10;;;;;;5094189;28;20023;-78
2021/05/26 04:42:56;;;;;;;25.58;12.25;;;19.60;48.60;;;;;;5094163;28;20073;-78
2021/05/26 04:45:21;;;;;;;27.63;12.75;;;19.40;48.70;;;;;;5092898;28;20024;-78
2021/05/26 04:47:47;;;;;;;22.77;12.32;;;19.50;49.10;;;;;;5094246;28;20390;-80
2021/05/26 04:50:14;;;;;;;14.80;10.73;;;19.40;49.60;;;;;;5094002;28;20032;-79
2021/05/26 04:52:40;;;;;;;24.30;11.50;;;19.30;47.60;;;;;;5094365;28;20027;-78
2021/05/26 04:55:06;;;;;;;19.92;11.95;;;19.20;48.70;;;;;;5092629;28;20043;-79
2021/05/26 04:57:32;;;;;;;28.98;13.63;;;19.20;48.70;;;;;;5094252;28;20012;-80
2021/05/26 04:59:57;;;;;;;19.20;11.48;;;19.40;49.00;;;;;;5092632;28;20020;-78
2021/05/26 05:02:23;;;;;;;29.58;12.45;;;19.70;48.80;;;;;;5092450;28;20020;-79
2021/05/26 05:04:49;;;;;;;25.10;11.52;;;20.60;47.30;;;;;;5093760;28;20028;-79
2021/05/26 05:07:15;;;;;;;16.98;11.57;;;21.70;45.50;;;;;;5093820;28;20070;-80
2021/05/26 05:09:41;;;;;;;24.10;11.27;;;22.80;43.00;;;;;;5092569;28;20115;-81
2021/05/26 05:12:07;;;;;;;22.52;10.73;;;23.60;42.00;;;;;;5093703;28;20043;-81
2021/05/26 05:14:33;;;;;;;26.30;12.55;;;24.40;40.40;;;;;;5093498;28;20052;-80
2021/05/26 05:16:58;;;;;;;22.13;10.63;;;25.40;39.20;;;;;;5093558;28;20028;-78
2021/05/26 05:19:24;;;;;;;23.27;10.57;;;26.00;36.40;;;;;;5093417;28;20024;-81
2021/05/26 05:21:50;;;;;;;21.77;10.10;;;26.20;35.90;;;;;;5093610;28;20453;-79
2021/05/26 05:24:17;;;;;;;19.23;10.40;;;26.50;35.10;;;;;;5093664;28;20038;-79
2021/05/26 05:26:43;;;;;;;20.67;9.60;;;27.30;35.20;;;;;;5093411;28;20012;-80
2021/05/26 05:29:09;;;;;;;14.95;8.80;;;27.80;33.60;;;;;;5093159;28;20412;-78
2021/05/26 05:31:38;;;;;;;18.38;7.88;;;27.60;32.80;;;;;;5092009;28;20078;-79
2021/05/26 05:34:04;;;;;;;14.63;7.43;;;27.80;32.60;;;;;;5092582;28;20449;-77
2021/05/26 05:36:30;;;;;;;16.52;6.60;;;27.80;32.60;;;;;;5092900;28;20055;-79
2021/05/26 05:38:56;;;;;;;12.93;7.40;;;27.70;32.60;;;;;;5093104;28;20039;-79
2021/05/26 05:41:22;;;;;;;16.87;6.73;;;27.70;32.30;;;;;;5092775;28;20456;-78
2021/05/26 05:43:50;;;;;;;14.90;6.15;;;27.80;32.50;;;;;;5092783;28;20054;-78
2021/05/26 05:46:17;;;;;;;14.95;5.75;;;;;;;;;;5089948;28;20348;-79
2021/05/26 05:48:43;;;;;;;16.05;5.80;;;28.90;31.80;;;;;;5092458;28;20028;-79
2021/05/26 05:51:08;;;;;;;6.45;3.28;;;30.70;30.00;;;;;;5092468;28;20032;-78
2021/05/26 05:53:34;;;;;;;7.30;3.75;;;30.80;28.70;;;;;;5092529;28;20047;-80
2021/05/26 05:56:02;;;;;;;11.43;4.00;;;30.60;28.80;;;;;;5080005;28;20095;-79
2021/05/26 05:58:28;;;;;;;7.78;4.05;;;29.70;28.80;;;;;;5093081;28;20377;-79
2021/05/26 06:00:54;;;;;;;8.30;3.22;;;29.20;29.40;;;;;;5092181;28;20497;-79
2021/05/26 06:03:20;;;;;;;10.80;2.70;;;29.00;29.80;;;;;;5092464;28;20028;-78
2021/05/26 06:05:46;;;;;;;3.85;2.85;;;;;;;;;;5080962;28;20318;-79
2021/05/26 06:08:12;;;;;;;8.50;3.00;;;;;;;;;;5092391;28;20086;-77
2021/05/26 06:10:38;;;;;;;10.00;4.33;;;31.20;27.70;;;;;;5090696;28;20036;-80
2021/05/26 06:13:08;;;;;;;4.05;2.35;;;32.60;28.00;;;;;;5092242;28;20251;-78
2021/05/26 06:15:37;;;;;;;4.43;2.60;;;33.60;26.80;;;;;;5090568;28;20016;-81
2021/05/26 06:18:03;;;;;;;11.35;3.90;;;33.90;26.70;;;;;;5087976;28;20033;-83
2021/05/26 06:20:29;;;;;;;;;;;;;;;;;;5088728;28;20020;-80
2021/05/26 06:22:56;;;;;;;8.73;2.35;;;;;;;;;;5085815;28;19904;-80
2021/05/26 06:25:21;;;;;;;7.03;2.85;;;36.50;26.80;;;;;;5085660;28;20495;-80
2021/05/26 06:27:47;;;;;;;7.20;2.60;;;37.20;24.60;;;;;;5093389;28;20036;-80
2021/05/26 06:30:15;;;;;;;7.60;2.35;;;37.70;24.70;;;;;;5098354;28;20851;-79
2021/05/26 06:32:41;;;;;;;8.25;1.83;;;38.50;24.00;;;;;;5098142;28;20028;-78
2021/05/26 06:35:07;;;;;;;7.20;2.17;;;39.10;23.50;;;;;;5078783;28;20779;-80
2021/05/26 06:37:33;;;;;;;7.32;1.90;;;39.80;23.70;;;;;;5102708;28;20020;-78
2021/05/26 06:39:59;;;;;;;5.00;1.80;;;40.00;23.00;;;;;;5110197;28;20036;-79
2021/05/26 06:42:25;;;;;;;8.27;2.55;;;39.10;23.10;;;;;;5099603;28;20020;-79
2021/05/26 06:44:51;;;;;;;3.20;1.25;;;39.40;23.40;;;;;;5102903;28;20081;-79
2021/05/26 06:47:17;;;;;;;4.05;1.42;;;40.00;22.90;;;;;;5101202;28;20553;-79
2021/05/26 06:49:43;;;;;;;4.43;2.63;;;40.60;22.80;;;;;;5093552;28;20396;-78
2021/05/26 06:52:09;;;;;;;5.40;2.03;;;41.40;22.90;;;;;;5094532;28;20012;-79
2021/05/26 06:54:34;;;;;;;7.50;1.73;;;41.90;22.40;;;;;;5099952;28;20016;-78
2021/05/26 06:57:01;;;;;;;5.65;1.52;;;42.00;22.40;;;;;;5099553;28;20020;-80
2021/05/26 06:59:27;;;;;;;5.25;1.90;;;41.50;22.00;;;;;;5067440;28;20099;-78
2021/05/26 07:01:56;;;;;;;5.85;2.38;;;40.10;22.20;;;;;;5098505;28;20477;-79
2021/05/26 07:04:22;;;;;;;9.07;2.22;;;40.00;22.90;;;;;;5077195;28;20051;-79
2021/05/26 07:06:47;;;;;;;4.35;1.48;;;40.30;22.80;;;;;;5097304;28;20019;-79
2021/05/26 07:09:13;;;;;;;5.97;2.03;;;40.40;22.60;;;;;;5093546;28;20028;-77
2021/05/26 07:11:39;;;;;;;6.55;1.58;;;40.40;22.70;;;;;;5092424;28;20017;-79
2021/05/26 07:14:05;;;;;;;3.75;1.50;;;40.20;22.50;;;;;;5092259;28;20028;-78
2021/05/26 07:16:31;;;;;;;6.07;1.95;;;40.10;22.40;;;;;;5092287;28;20040;-80
2021/05/26 07:18:59;;;;;;;5.43;1.65;;;40.00;22.90;;;;;;5092092;28;20114;-80
2021/05/26 07:21:27;;;;;;;5.55;1.90;;;41.00;22.80;;;;;;5092206;28;20509;-81
2021/05/26 07:24:01;;;;;;;4.18;1.70;;;40.50;22.10;;;;;;5092637;28;20028;-78
2021/05/26 07:26:27;;;;;;;4.50;1.83;;;39.70;22.20;;;;;;5092424;28;20036;-78
2021/05/26 07:28:53;;;;;;;2.40;1.15;;;37.00;23.00;;;;;;5092076;28;20059;-78
2021/05/26 07:31:19;;;;;;;3.33;1.45;;;36.70;23.60;;;;;;5090524;28;20489;-79
2021/05/26 07:33:45;;;;;;;5.45;1.92;;;38.10;23.90;;;;;;5083340;28;20036;-79
2021/05/26 07:36:12;;;;;;;4.75;1.80;;;39.70;23.20;;;;;;5095606;28;20024;-79
2021/05/26 07:38:40;;;;;;;4.10;1.65;;;41.00;22.60;;;;;;5095705;28;20020;-79
2021/05/26 07:41:06;;;;;;;3.83;1.73;;;42.00;22.40;;;;;;5095820;28;20115;-79
2021/05/26 07:43:33;;;;;;;5.07;1.75;;;42.90;22.00;;;;;;5095821;28;20028;-79
2021/05/26 07:46:00;;;;;;;3.47;1.42;;;43.00;21.50;;;;;;5095356;28;20058;-79
2021/05/26 07:48:26;;;;;;;6.68;1.67;;;39.80;21.80;;;;;;5095222;28;20016;-79
2021/05/26 07:50:52;;;;;;;6.22;1.55;;;39.00;22.90;;;;;;5095336;28;20385;-78
2021/05/26 07:53:18;;;;;;;5.05;1.58;;;39.90;22.80;;;;;;5095236;28;20028;-78
2021/05/26 07:55:44;;;;;;;8.38;1.85;;;40.00;22.30;;;;;;5095120;28;20035;-78
2021/05/26 07:58:10;;;;;;;5.18;1.60;;;39.30;22.50;;;;;;5095523;28;20144;-81
2021/05/26 08:00:39;;;;;;;4.28;2.25;;;38.60;22.90;;;;;;5093870;28;20397;-80
2021/05/26 08:03:06;;;;;;;6.50;1.50;;;39.10;23.10;;;;;;5094173;28;20120;-79
2021/05/26 08:05:32;;;;;;;5.28;1.27;;;40.30;22.60;;;;;;5095275;28;20105;-78
2021/05/26 08:07:58;;;;;;;;;;;41.70;22.40;;;;;;5095546;28;20016;-79
2021/05/26 08:10:24;;;;;;;9.40;1.48;;;43.10;22.70;;;;;;5095375;28;20282;-80
2021/05/26 08:12:50;;;;;;;5.13;1.65;;;43.40;21.30;;;;;;5076710;28;20034;-79
2021/05/26 08:15:15;;;;;;;;;;;42.40;21.40;;;;;;5095413;28;20087;-79
2021/05/26 08:17:42;;;;;;;4.70;1.20;;;42.40;22.20;;;;;;5093344;28;19958;-80
2021/05/26 08:20:09;;;;;;;3.38;1.52;;;43.30;21.60;;;;;;5094657;28;20059;-80
2021/05/26 08:22:35;;;;;;;2.28;1.50;;;43.80;21.20;;;;;;5094924;28;20027;-78
2021/05/26 08:25:01;;;;;;;2.88;1.15;;;44.10;21.10;;;;;;5076449;28;20024;-80
2021/05/26 08:27:27;;;;;;;3.47;1.70;;;42.70;20.90;;;;;;5094765;28;20027;-79
2021/05/26 08:29:54;;;;;;;4.55;1.67;;;40.20;21.60;;;;;;5097021;28;20052;-77
2021/05/26 08:32:22;;;;;;;5.07;1.40;;;39.30;22.60;;;;;;5115574;28;20473;-78
2021/05/26 08:34:49;;;;;;;3.90;1.63;;;40.20;22.60;;;;;;5098788;28;20032;-80
2021/05/26 08:37:16;;;;;;;2.35;1.27;;;41.80;22.20;;;;;;5076581;28;20591;-79
2021/05/26 08:39:43;;;;;;;1.95;1.15;;;42.30;21.40;;;;;;5094999;28;20085;-78
2021/05/26 08:42:09;;;;;;;3.95;1.67;;;40.90;21.90;;;;;;5086373;28;20484;-78
2021/05/26 08:44:35;;;;;;;;;;;40.90;22.20;;;;;;5095843;28;20028;-78
2021/05/26 08:47:03;;;;;;;3.63;1.35;;;41.00;22.10;;;;;;5097208;28;19908;-77
2021/05/26 08:49:30;;;;;;;3.97;1.33;;;41.40;21.60;;;;;;5112543;28;20051;-79
2021/05/26 08:52:01;;;;;;;6.93;1.83;;;40.00;21.20;;;;;;5103618;28;20147;-78
2021/05/26 08:54:28;;;;;;;6.75;2.53;;;37.30;22.20;;;;;;5076179;28;20582;-79
2021/05/26 08:56:54;;;;;;;4.78;1.58;;;36.20;23.10;;;;;;5094364;28;20493;-80
2021/05/26 08:59:23;;;;;;;3.80;1.50;;;36.20;23.40;;;;;;5092698;28;20040;-79
2021/05/26 09:01:50;;;;;;;3.20;1.40;;;35.80;23.80;;;;;;5094246;28;20478;-80
2021/05/26 09:04:32;;;;;;;6.53;1.40;;;35.00;23.50;;;;;;5093828;28;20023;-78
2021/05/26 09:07:14;;;;;;;2.72;1.50;;;32.90;24.30;;;;;;5093826;28;20073;-79
2021/05/26 09:09:49;;;;;;;4.55;2.00;;;31.00;25.50;;;;;;5092153;28;20012;-79
2021/05/26 09:12:29;;;;;;;5.68;2.15;;;30.10;26.60;;;;;;5094193;28;20511;-79
2021/05/26 09:15:01;;;;;;;4.85;1.90;;;30.20;27.30;;;;;;5094791;28;20473;-80
2021/05/26 09:17:30;;;;;;;5.45;2.45;;;32.50;26.50;;;;;;5093979;28;20111;-79
2021/05/26 09:20:22;;;;;;;5.80;2.00;;;35.40;25.30;;;;;;5093910;28;20031;-80
2021/05/26 09:23:12;;;;;;;4.05;1.70;;;36.10;24.20;;;;;;5093393;28;20123;-78
2021/05/26 09:25:51;;;;;;;5.05;1.55;;;36.40;23.90;;;;;;5088693;28;20034;-80
2021/05/26 09:28:23;;;;;;;3.30;1.42;;;36.80;23.70;;;;;;5091615;28;20068;-78
2021/05/26 09:30:51;;;;;;;5.88;1.65;;;37.80;23.20;;;;;;5093511;28;20016;-79
2021/05/26 09:33:25;;;;;;;3.53;1.55;;;36.40;23.10;;;;;;5093134;28;20078;-79
2021/05/26 09:36:14;;;;;;;5.95;1.73;;;35.40;24.10;;;;;;5093423;28;20023;-79
2021/05/26 09:38:46;;;;;;;2.47;1.75;;;35.80;24.30;;;;;;5093397;28;20054;-79
2021/05/26 09:41:14;;;;;;;3.05;1.60;;;36.30;23.70;;;;;;5093371;28;20020;-79
2021/05/26 09:43:47;;;;;;;5.05;1.13;;;36.40;23.40;;;;;;5093098;28;20026;-78
2021/05/26 09:46:22;;;;;;;2.58;1.65;;;36.00;23.70;;;;;;5093094;28;20024;-82
2021/05/26 09:49:03;;;;;;;4.35;1.38;;;35.00;23.90;;;;;;5091118;28;20016;-79
2021/05/26 09:51:31;;;;;;;3.70;1.77;;;33.80;24.40;;;;;;5092919;28;20028;-81
2021/05/26 09:54:18;;;;;;;3.45;1.13;;;32.90;25.20;;;;;;5092962;28;20020;-79
2021/05/26 09:56:46;;;;;;;7.25;1.63;;;;;;;;;;5093579;28;20021;-80
2021/05/26 09:59:12;;;;;;;3.00;1.50;;;;;;;;;;5092961;28;20468;-81
2021/05/26 10:01:40;;;;;;;5.93;2.05;;;33.00;25.00;;;;;;5091820;28;20090;-80
2021/05/26 10:04:07;;;;;;;12.55;3.13;;;31.00;26.70;;;;;;5092943;28;20549;-79
2021/05/26 10:06:34;;;;;;;4.32;1.30;;;32.50;26.30;;;;;;5093153;28;20099;-80
2021/05/26 10:09:00;;;;;;;2.88;1.38;;;34.70;25.10;;;;;;5092815;28;20478;-79
2021/05/26 10:11:33;;;;;;;2.67;1.67;;;34.80;24.50;;;;;;5092682;28;20016;-80
2021/05/26 10:14:11;;;;;;;3.65;1.83;;;34.50;24.80;;;;;;5091492;28;20028;-80
2021/05/26 10:16:41;;;;;;;2.78;1.15;;;33.80;24.80;;;;;;5092573;28;20027;-80
2021/05/26 10:19:07;;;;;;;4.80;1.50;;;32.60;24.80;;;;;;5091848;28;20055;-80
2021/05/26 10:21:34;;;;;;;3.05;1.40;;;32.50;26.00;;;;;;5093095;28;20057;-80
2021/05/26 10:24:05;;;;;;;3.40;1.58;;;33.40;25.10;;;;;;5092642;28;20028;-80
2021/05/26 10:26:54;;;;;;;3.22;1.20;;;33.00;25.20;;;;;;5093392;28;20016;-81
2021/05/26 10:29:36;;;;;;;5.93;2.00;;;32.10;25.20;;;;;;5092229;28;20048;-79
2021/05/26 10:32:05;;;;;;;4.60;2.10;;;30.70;26.60;;;;;;5092495;28;20031;-82
2021/05/26 10:34:43;;;;;;;3.13;2.20;;;29.80;27.30;;;;;;5092208;28;20024;-82
2021/05/26 10:37:10;;;;;;;3.47;2.00;;;29.10;27.70;;;;;;5084842;28;20100;-82
2021/05/26 10:39:36;;;;;;;2.75;1.73;;;28.50;28.50;;;;;;5113018;28;20043;-81
2021/05/26 10:42:04;;;;;;;4.68;1.85;;;28.10;28.80;;;;;;5108026;28;20023;-79
2021/05/26 10:44:48;;;;;;;;;;;27.60;29.10;;;;;;5092658;28;20080;-81
2021/05/26 10:47:44;;;;;;;3.90;1.95;;;27.40;28.70;;;;;;5092268;28;20337;-81
2021/05/26 10:50:41;;;;;;;7.50;2.85;;;27.30;29.70;;;;;;5075686;28;20031;-80
2021/05/26 10:53:09;;;;;;;4.38;2.42;;;27.00;29.90;;;;;;5092000;28;20499;-79
2021/05/26 10:55:48;;;;;;;3.63;2.00;;;27.10;30.30;;;;;;5092832;28;20123;-79
2021/05/26 10:58:34;;;;;;;2.30;1.70;;;26.70;30.00;;;;;;5093424;28;20020;-80
2021/05/26 11:01:03;;;;;;;3.08;1.83;;;26.00;31.10;;;;;;5095127;28;20046;-79
2021/05/26 11:03:36;;;;;;;7.18;2.30;;;25.30;31.70;;;;;;5095352;28;20055;-81
2021/05/26 11:06:13;;;;;;;4.03;2.40;;;24.90;32.60;;;;;;5087456;28;20020;-79
2021/05/26 11:08:57;;;;;;;4.68;2.55;;;24.80;32.70;;;;;;5088963;28;20035;-80
2021/05/26 11:11:33;;;;;;;1.77;1.58;;;24.70;33.30;;;;;;5096856;28;20073;-79
2021/05/26 11:14:15;;;;;;;3.35;1.85;;;24.80;32.80;;;;;;5097808;28;20251;-80
2021/05/26 11:16:44;;;;;;;5.53;2.08;;;24.80;33.30;;;;;;5077362;28;20028;-80
2021/05/26 11:19:24;;;;;;;6.65;2.78;;;24.70;33.80;;;;;;5077782;28;20084;-79
2021/05/26 11:22:01;;;;;;;6.47;2.28;;;24.80;34.10;;;;;;5080693;28;20055;-80
2021/05/26 11:24:29;;;;;;;5.32;2.17;;;24.90;34.20;;;;;;5097085;28;20024;-80
2021/05/26 11:26:56;;;;;;;7.15;2.30;;;25.00;33.70;;;;;;5082472;28;20031;-80
2021/05/26 11:29:29;;;;;;;4.03;1.75;;;24.70;33.70;;;;;;5077850;28;20059;-81
2021/05/26 11:32:10;;;;;;;5.55;2.20;;;24.70;33.80;;;;;;5098374;28;20431;-80
2021/05/26 11:34:37;;;;;;;4.15;1.95;;;24.80;34.00;;;;;;5101109;28;20020;-80
2021/05/26 11:37:04;;;;;;;6.82;2.20;;;24.70;33.50;;;;;;5095913;28;20016;-81
2021/05/26 11:39:34;;;;;;;3.92;2.17;;;24.50;33.90;;;;;;5095813;28;20044;-80
2021/05/26 11:42:10;;;;;;;3.05;2.22;;;24.40;34.00;;;;;;5095701;28;20399;-80
2021/05/26 11:44:38;;;;;;;4.43;2.53;;;24.50;34.40;;;;;;5094545;28;20066;-78
2021/05/26 11:47:05;;;;;;;3.53;2.22;;;24.50;34.30;;;;;;5095758;28;20020;-81
2021/05/26 11:49:33;;;;;;;5.60;2.03;;;24.50;34.40;;;;;;5095829;28;20024;-80
2021/05/26 11:52:07;;;;;;;4.72;2.15;;;24.60;34.60;;;;;;5095404;28;20024;-79
2021/05/26 11:54:33;;;;;;;6.20;2.33;;;24.50;34.40;;;;;;5095568;28;20027;-79
2021/05/26 11:57:04;;;;;;;6.60;2.65;;;24.50;34.50;;;;;;5095573;28;20029;-79
2021/05/26 11:59:31;;;;;;;5.43;2.08;;;24.50;34.80;;;;;;5095835;28;20488;-81
2021/05/26 12:01:59;;;;;;;5.25;2.42;;;24.60;35.40;;;;;;5096216;28;20443;-82
2021/05/26 12:04:25;;;;;;;3.88;1.90;;;24.70;34.80;;;;;;5097039;28;20025;-79
2021/05/26 12:06:52;;;;;;;5.13;2.20;;;24.80;34.80;;;;;;5101062;28;20027;-81
2021/05/26 12:09:31;;;;;;;8.43;2.38;;;25.00;34.40;;;;;;5106825;28;20089;-80
2021/05/26 12:11:57;;;;;;;4.63;2.13;;;25.10;34.40;;;;;;5108430;28;20035;-81
2021/05/26 12:14:31;;;;;;;3.92;2.00;;;25.30;34.40;;;;;;5102221;28;20023;-79
2021/05/26 12:17:00;;;;;;;5.35;2.45;;;25.30;33.90;;;;;;5096241;28;20026;-79
2021/05/26 12:19:30;;;;;;;3.33;2.20;;;25.00;34.10;;;;;;5095013;28;20035;-79
2021/05/26 12:22:18;;;;;;;2.65;2.30;;;25.00;34.40;;;;;;5096009;28;20071;-80
2021/05/26 12:25:03;;;;;;;5.00;2.25;;;25.20;34.30;;;;;;5095073;28;20020;-80
2021/05/26 12:27:43;;;;;;;3.70;1.60;;;25.50;33.90;;;;;;5093627;28;20196;-80
2021/05/26 12:30:26;;;;;;;4.25;2.28;;;25.60;33.30;;;;;;5094628;28;20043;-80
2021/05/26 12:33:11;;;;;;;8.60;2.53;;;25.60;33.40;;;;;;5094952;28;20024;-79
2021/05/26 12:35:37;;;;;;;4.25;2.28;;;25.40;33.60;;;;;;5095577;28;20465;-81
2021/05/26 12:38:23;;;;;;;3.60;2.38;;;25.50;33.60;;;;;;5096809;28;20030;-81
2021/05/26 12:40:49;;;;;;;3.88;2.55;;;25.60;33.40;;;;;;5094790;28;20039;-80
2021/05/26 12:43:41;;;;;;;3.17;2.30;;;25.60;32.90;;;;;;5094257;28;20388;-79
2021/05/26 12:46:07;;;;;;;4.00;2.03;;;25.40;33.10;;;;;;5092602;28;20032;-80
2021/05/26 12:48:33;;;;;;;7.72;2.30;;;25.10;34.00;;;;;;5094487;28;20473;-79
2021/05/26 12:51:00;;;;;;;3.00;2.07;;;24.90;34.20;;;;;;5093377;28;20028;-81
2021/05/26 12:53:33;;;;;;;4.72;2.55;;;24.80;34.40;;;;;;5094300;28;20035;-81